sensor_id;sensor_type;location;lat;lon;timestamp;temperature;humidity
39345;DHT22;25061;51.954;6.996;2022-07-12T00:01:07;14.70;99.90
39345;DHT22;25061;51.954;6.996;2022-07-12T00:03:33;14.60;99.90
39345;DHT22;25061;51.954;6.996;2022-07-12T00:06:00;14.60;99.90
39345;DHT22;25061;51.954;6.996;2022-07-12T00:08:26;14.60;99.90
39345;DHT22;25061;51.954;6.996;2022-07-12T00:10:51;14.50;99.90
39345;DHT22;25061;51.954;6.996;2022-07-12T00:13:17;14.30;99.90
39345;DHT22;25061;51.954;6.996;2022-07-12T00:15:44;14.40;99.90
39345;DHT22;25061;51.954;6.996;2022-07-12T00:18:10;14.30;99.90
39345;DHT22;25061;51.954;6.996;2022-07-12T00:20:36;14.30;99.90
39345;DHT22;25061;51.954;6.996;2022-07-12T00:23:02;14.30;99.90
39345;DHT22;25061;51.954;6.996;2022-07-12T00:25:28;14.40;99.90
39345;DHT22;25061;51.954;6.996;2022-07-12T00:27:54;14.30;99.90
39345;DHT22;25061;51.954;6.996;2022-07-12T00:30:20;14.20;99.90
39345;DHT22;25061;51.954;6.996;2022-07-12T00:32:45;14.20;99.90
39345;DHT22;25061;51.954;6.996;2022-07-12T00:35:14;14.20;99.90
39345;DHT22;25061;51.954;6.996;2022-07-12T00:37:40;14.20;99.90
39345;DHT22;25061;51.954;6.996;2022-07-12T00:40:07;14.10;99.90
39345;DHT22;25061;51.954;6.996;2022-07-12T00:42:37;14.00;99.90
39345;DHT22;25061;51.954;6.996;2022-07-12T00:45:07;14.20;99.90
39345;DHT22;25061;51.954;6.996;2022-07-12T00:47:46;14.10;99.90
39345;DHT22;25061;51.954;6.996;2022-07-12T00:50:20;14.10;99.90
39345;DHT22;25061;51.954;6.996;2022-07-12T00:52:49;14.10;99.90
39345;DHT22;25061;51.954;6.996;2022-07-12T00:55:16;14.00;99.90
39345;DHT22;25061;51.954;6.996;2022-07-12T00:57:42;13.90;99.90
39345;DHT22;25061;51.954;6.996;2022-07-12T01:00:14;14.00;99.90
39345;DHT22;25061;51.954;6.996;2022-07-12T01:02:40;14.00;99.90
39345;DHT22;25061;51.954;6.996;2022-07-12T01:05:07;14.00;99.90
39345;DHT22;25061;51.954;6.996;2022-07-12T01:07:37;14.00;99.90
39345;DHT22;25061;51.954;6.996;2022-07-12T01:10:03;14.00;99.90
39345;DHT22;25061;51.954;6.996;2022-07-12T01:12:30;13.90;99.90
39345;DHT22;25061;51.954;6.996;2022-07-12T01:14:56;13.90;99.90
39345;DHT22;25061;51.954;6.996;2022-07-12T01:17:23;13.90;99.90
39345;DHT22;25061;51.954;6.996;2022-07-12T01:19:51;13.90;99.90
39345;DHT22;25061;51.954;6.996;2022-07-12T01:22:18;13.80;99.90
39345;DHT22;25061;51.954;6.996;2022-07-12T01:24:45;13.70;99.90
39345;DHT22;25061;51.954;6.996;2022-07-12T01:27:11;13.70;99.90
39345;DHT22;25061;51.954;6.996;2022-07-12T01:29:37;13.80;99.90
39345;DHT22;25061;51.954;6.996;2022-07-12T01:32:04;13.80;99.90
39345;DHT22;25061;51.954;6.996;2022-07-12T01:34:50;13.70;99.90
39345;DHT22;25061;51.954;6.996;2022-07-12T01:37:16;13.70;99.90
39345;DHT22;25061;51.954;6.996;2022-07-12T01:39:47;13.60;99.90
39345;DHT22;25061;51.954;6.996;2022-07-12T01:42:13;13.60;99.90
39345;DHT22;25061;51.954;6.996;2022-07-12T01:44:39;13.50;99.90
39345;DHT22;25061;51.954;6.996;2022-07-12T01:47:05;13.70;99.90
39345;DHT22;25061;51.954;6.996;2022-07-12T01:49:30;13.70;99.90
39345;DHT22;25061;51.954;6.996;2022-07-12T01:51:56;13.60;99.90
39345;DHT22;25061;51.954;6.996;2022-07-12T01:54:26;13.60;99.90
39345;DHT22;25061;51.954;6.996;2022-07-12T01:56:52;13.50;99.90
39345;DHT22;25061;51.954;6.996;2022-07-12T01:59:19;13.40;99.90
39345;DHT22;25061;51.954;6.996;2022-07-12T02:01:45;13.40;99.90
39345;DHT22;25061;51.954;6.996;2022-07-12T02:04:11;13.40;99.90
39345;DHT22;25061;51.954;6.996;2022-07-12T02:06:38;13.50;99.90
39345;DHT22;25061;51.954;6.996;2022-07-12T02:09:04;13.40;99.90
39345;DHT22;25061;51.954;6.996;2022-07-12T02:11:30;13.30;99.90
39345;DHT22;25061;51.954;6.996;2022-07-12T02:13:56;13.40;99.90
39345;DHT22;25061;51.954;6.996;2022-07-12T02:16:21;13.50;99.90
39345;DHT22;25061;51.954;6.996;2022-07-12T02:18:47;13.50;99.90
39345;DHT22;25061;51.954;6.996;2022-07-12T02:21:13;13.30;99.90
39345;DHT22;25061;51.954;6.996;2022-07-12T02:23:38;13.20;99.90
39345;DHT22;25061;51.954;6.996;2022-07-12T02:26:04;13.20;99.90
39345;DHT22;25061;51.954;6.996;2022-07-12T02:28:29;13.10;99.90
39345;DHT22;25061;51.954;6.996;2022-07-12T02:30:56;13.10;99.90
39345;DHT22;25061;51.954;6.996;2022-07-12T02:33:22;13.10;99.90
39345;DHT22;25061;51.954;6.996;2022-07-12T02:35:48;13.00;99.90
39345;DHT22;25061;51.954;6.996;2022-07-12T02:38:14;12.90;99.90
39345;DHT22;25061;51.954;6.996;2022-07-12T02:40:39;13.00;99.90
39345;DHT22;25061;51.954;6.996;2022-07-12T02:43:25;12.90;99.90
39345;DHT22;25061;51.954;6.996;2022-07-12T02:45:52;12.90;99.90
39345;DHT22;25061;51.954;6.996;2022-07-12T02:48:18;13.00;99.90
39345;DHT22;25061;51.954;6.996;2022-07-12T02:50:44;13.00;99.90
39345;DHT22;25061;51.954;6.996;2022-07-12T02:53:10;13.00;99.90
39345;DHT22;25061;51.954;6.996;2022-07-12T02:55:36;13.00;99.90
39345;DHT22;25061;51.954;6.996;2022-07-12T02:58:02;12.90;99.90
39345;DHT22;25061;51.954;6.996;2022-07-12T03:00:28;12.90;99.90
39345;DHT22;25061;51.954;6.996;2022-07-12T03:02:54;12.90;99.90
39345;DHT22;25061;51.954;6.996;2022-07-12T03:05:20;12.80;99.90
39345;DHT22;25061;51.954;6.996;2022-07-12T03:07:45;12.70;99.90
39345;DHT22;25061;51.954;6.996;2022-07-12T03:10:11;12.80;99.90
39345;DHT22;25061;51.954;6.996;2022-07-12T03:12:38;12.70;99.90
39345;DHT22;25061;51.954;6.996;2022-07-12T03:15:05;12.80;99.90
39345;DHT22;25061;51.954;6.996;2022-07-12T03:17:31;12.80;99.90
39345;DHT22;25061;51.954;6.996;2022-07-12T03:19:56;12.70;99.90
39345;DHT22;25061;51.954;6.996;2022-07-12T03:22:22;12.70;99.90
39345;DHT22;25061;51.954;6.996;2022-07-12T03:24:48;12.70;99.90
39345;DHT22;25061;51.954;6.996;2022-07-12T03:27:13;12.70;99.90
39345;DHT22;25061;51.954;6.996;2022-07-12T03:29:39;12.70;99.90
39345;DHT22;25061;51.954;6.996;2022-07-12T03:32:05;12.60;99.90
39345;DHT22;25061;51.954;6.996;2022-07-12T03:34:31;12.50;99.90
39345;DHT22;25061;51.954;6.996;2022-07-12T03:36:57;12.50;99.90
39345;DHT22;25061;51.954;6.996;2022-07-12T03:39:23;12.70;99.90
39345;DHT22;25061;51.954;6.996;2022-07-12T03:41:48;12.60;99.90
39345;DHT22;25061;51.954;6.996;2022-07-12T03:44:14;12.60;99.90
39345;DHT22;25061;51.954;6.996;2022-07-12T03:46:39;12.70;99.90
39345;DHT22;25061;51.954;6.996;2022-07-12T03:49:05;12.80;99.90
39345;DHT22;25061;51.954;6.996;2022-07-12T03:51:31;12.80;99.90
39345;DHT22;25061;51.954;6.996;2022-07-12T03:53:56;12.80;99.90
39345;DHT22;25061;51.954;6.996;2022-07-12T03:56:22;12.90;99.90
39345;DHT22;25061;51.954;6.996;2022-07-12T03:59:06;12.70;99.90
39345;DHT22;25061;51.954;6.996;2022-07-12T04:01:32;12.70;99.90
39345;DHT22;25061;51.954;6.996;2022-07-12T04:03:58;12.70;99.90
39345;DHT22;25061;51.954;6.996;2022-07-12T04:06:24;12.80;99.90
39345;DHT22;25061;51.954;6.996;2022-07-12T04:08:50;12.80;99.90
39345;DHT22;25061;51.954;6.996;2022-07-12T04:11:15;12.80;99.90
39345;DHT22;25061;51.954;6.996;2022-07-12T04:13:41;12.80;99.90
39345;DHT22;25061;51.954;6.996;2022-07-12T04:16:06;12.80;99.90
39345;DHT22;25061;51.954;6.996;2022-07-12T04:18:32;12.80;99.90
39345;DHT22;25061;51.954;6.996;2022-07-12T04:20:58;12.90;99.90
39345;DHT22;25061;51.954;6.996;2022-07-12T04:23:24;12.90;99.90
39345;DHT22;25061;51.954;6.996;2022-07-12T04:25:50;12.90;99.90
39345;DHT22;25061;51.954;6.996;2022-07-12T04:28:15;12.80;99.90
39345;DHT22;25061;51.954;6.996;2022-07-12T04:30:41;12.90;99.90
39345;DHT22;25061;51.954;6.996;2022-07-12T04:33:08;13.10;99.90
39345;DHT22;25061;51.954;6.996;2022-07-12T04:35:34;13.20;99.90
39345;DHT22;25061;51.954;6.996;2022-07-12T04:38:15;13.10;99.90
39345;DHT22;25061;51.954;6.996;2022-07-12T04:40:41;13.10;99.90
39345;DHT22;25061;51.954;6.996;2022-07-12T04:43:07;13.30;99.90
39345;DHT22;25061;51.954;6.996;2022-07-12T04:45:32;13.40;99.90
39345;DHT22;25061;51.954;6.996;2022-07-12T04:47:58;13.40;99.90
39345;DHT22;25061;51.954;6.996;2022-07-12T04:50:23;13.50;99.90
39345;DHT22;25061;51.954;6.996;2022-07-12T04:52:49;13.50;99.90
39345;DHT22;25061;51.954;6.996;2022-07-12T04:55:15;13.50;99.90
39345;DHT22;25061;51.954;6.996;2022-07-12T04:57:40;13.60;99.90
39345;DHT22;25061;51.954;6.996;2022-07-12T05:00:06;13.80;99.90
39345;DHT22;25061;51.954;6.996;2022-07-12T05:02:33;14.00;99.90
39345;DHT22;25061;51.954;6.996;2022-07-12T05:04:58;14.20;99.90
39345;DHT22;25061;51.954;6.996;2022-07-12T05:07:24;14.30;99.90
39345;DHT22;25061;51.954;6.996;2022-07-12T05:09:50;14.60;99.90
39345;DHT22;25061;51.954;6.996;2022-07-12T05:12:17;14.80;99.90
39345;DHT22;25061;51.954;6.996;2022-07-12T05:14:42;15.10;99.90
39345;DHT22;25061;51.954;6.996;2022-07-12T05:17:08;15.30;99.90
39345;DHT22;25061;51.954;6.996;2022-07-12T05:19:33;15.40;99.90
39345;DHT22;25061;51.954;6.996;2022-07-12T05:21:59;15.60;99.90
39345;DHT22;25061;51.954;6.996;2022-07-12T05:24:24;15.90;99.90
39345;DHT22;25061;51.954;6.996;2022-07-12T05:26:50;16.10;99.90
39345;DHT22;25061;51.954;6.996;2022-07-12T05:29:15;16.40;99.90
39345;DHT22;25061;51.954;6.996;2022-07-12T05:31:41;16.80;99.90
39345;DHT22;25061;51.954;6.996;2022-07-12T05:34:06;17.10;99.90
39345;DHT22;25061;51.954;6.996;2022-07-12T05:36:32;17.40;99.90
39345;DHT22;25061;51.954;6.996;2022-07-12T05:38:58;17.50;99.90
39345;DHT22;25061;51.954;6.996;2022-07-12T05:41:23;17.70;99.90
39345;DHT22;25061;51.954;6.996;2022-07-12T05:43:49;18.20;99.90
39345;DHT22;25061;51.954;6.996;2022-07-12T05:46:14;18.00;99.90
39345;DHT22;25061;51.954;6.996;2022-07-12T05:48:40;18.10;99.90
39345;DHT22;25061;51.954;6.996;2022-07-12T05:51:05;18.00;99.90
39345;DHT22;25061;51.954;6.996;2022-07-12T05:53:49;18.10;99.90
39345;DHT22;25061;51.954;6.996;2022-07-12T05:56:15;18.50;99.90
39345;DHT22;25061;51.954;6.996;2022-07-12T05:58:41;18.90;99.90
39345;DHT22;25061;51.954;6.996;2022-07-12T06:01:07;18.90;99.90
39345;DHT22;25061;51.954;6.996;2022-07-12T06:03:33;19.20;99.90
39345;DHT22;25061;51.954;6.996;2022-07-12T06:05:59;19.80;99.90
39345;DHT22;25061;51.954;6.996;2022-07-12T06:08:25;20.20;99.90
39345;DHT22;25061;51.954;6.996;2022-07-12T06:10:50;20.30;99.90
39345;DHT22;25061;51.954;6.996;2022-07-12T06:13:16;20.60;99.90
39345;DHT22;25061;51.954;6.996;2022-07-12T06:15:42;20.80;99.90
39345;DHT22;25061;51.954;6.996;2022-07-12T06:18:07;21.10;99.90
39345;DHT22;25061;51.954;6.996;2022-07-12T06:20:33;20.90;99.90
39345;DHT22;25061;51.954;6.996;2022-07-12T06:22:59;20.70;99.90
39345;DHT22;25061;51.954;6.996;2022-07-12T06:25:24;20.60;99.90
39345;DHT22;25061;51.954;6.996;2022-07-12T06:27:50;20.70;99.90
39345;DHT22;25061;51.954;6.996;2022-07-12T06:30:20;20.70;99.90
39345;DHT22;25061;51.954;6.996;2022-07-12T06:32:47;20.80;99.90
39345;DHT22;25061;51.954;6.996;2022-07-12T06:35:14;21.00;99.90
39345;DHT22;25061;51.954;6.996;2022-07-12T06:37:43;20.90;99.90
39345;DHT22;25061;51.954;6.996;2022-07-12T06:40:09;20.90;99.90
39345;DHT22;25061;51.954;6.996;2022-07-12T06:42:35;21.40;99.90
39345;DHT22;25061;51.954;6.996;2022-07-12T06:45:01;21.90;99.90
39345;DHT22;25061;51.954;6.996;2022-07-12T06:47:27;22.40;99.90
39345;DHT22;25061;51.954;6.996;2022-07-12T06:49:52;22.60;99.90
39345;DHT22;25061;51.954;6.996;2022-07-12T06:52:18;22.70;99.90
39345;DHT22;25061;51.954;6.996;2022-07-12T06:54:44;23.00;99.90
39345;DHT22;25061;51.954;6.996;2022-07-12T06:57:10;23.20;99.90
39345;DHT22;25061;51.954;6.996;2022-07-12T06:59:35;23.50;99.90
39345;DHT22;25061;51.954;6.996;2022-07-12T07:02:01;23.90;99.90
39345;DHT22;25061;51.954;6.996;2022-07-12T07:04:27;23.80;99.90
39345;DHT22;25061;51.954;6.996;2022-07-12T07:06:52;23.80;99.90
39345;DHT22;25061;51.954;6.996;2022-07-12T07:09:18;24.20;99.90
39345;DHT22;25061;51.954;6.996;2022-07-12T07:11:44;24.00;99.90
39345;DHT22;25061;51.954;6.996;2022-07-12T07:14:09;24.00;99.90
39345;DHT22;25061;51.954;6.996;2022-07-12T07:16:35;23.40;99.90
39345;DHT22;25061;51.954;6.996;2022-07-12T07:19:02;23.00;99.90
39345;DHT22;25061;51.954;6.996;2022-07-12T07:21:28;22.60;99.90
39345;DHT22;25061;51.954;6.996;2022-07-12T07:23:54;22.80;99.90
39345;DHT22;25061;51.954;6.996;2022-07-12T07:26:21;22.80;99.90
39345;DHT22;25061;51.954;6.996;2022-07-12T07:28:46;22.70;99.90
39345;DHT22;25061;51.954;6.996;2022-07-12T07:31:37;22.90;99.90
39345;DHT22;25061;51.954;6.996;2022-07-12T07:34:03;23.00;99.90
39345;DHT22;25061;51.954;6.996;2022-07-12T07:36:29;23.00;99.90
39345;DHT22;25061;51.954;6.996;2022-07-12T07:38:57;23.40;99.90
39345;DHT22;25061;51.954;6.996;2022-07-12T07:41:23;23.40;99.90
39345;DHT22;25061;51.954;6.996;2022-07-12T07:43:49;23.30;99.90
39345;DHT22;25061;51.954;6.996;2022-07-12T07:46:18;23.50;99.90
39345;DHT22;25061;51.954;6.996;2022-07-12T07:48:44;23.80;99.90
39345;DHT22;25061;51.954;6.996;2022-07-12T07:51:09;23.80;99.90
39345;DHT22;25061;51.954;6.996;2022-07-12T07:53:35;23.70;99.90
39345;DHT22;25061;51.954;6.996;2022-07-12T07:56:01;23.90;99.90
39345;DHT22;25061;51.954;6.996;2022-07-12T07:58:27;24.20;99.90
39345;DHT22;25061;51.954;6.996;2022-07-12T08:00:53;24.90;99.90
39345;DHT22;25061;51.954;6.996;2022-07-12T08:03:20;25.10;99.90
39345;DHT22;25061;51.954;6.996;2022-07-12T08:05:46;25.60;99.90
39345;DHT22;25061;51.954;6.996;2022-07-12T08:08:12;25.90;99.90
39345;DHT22;25061;51.954;6.996;2022-07-12T08:10:38;25.30;99.90
39345;DHT22;25061;51.954;6.996;2022-07-12T08:13:04;25.60;99.90
39345;DHT22;25061;51.954;6.996;2022-07-12T08:15:30;25.30;99.90
39345;DHT22;25061;51.954;6.996;2022-07-12T08:17:56;25.50;99.90
39345;DHT22;25061;51.954;6.996;2022-07-12T08:20:23;26.10;99.90
39345;DHT22;25061;51.954;6.996;2022-07-12T08:22:48;25.80;99.90
39345;DHT22;25061;51.954;6.996;2022-07-12T08:25:14;26.00;99.90
39345;DHT22;25061;51.954;6.996;2022-07-12T08:27:40;26.40;99.90
39345;DHT22;25061;51.954;6.996;2022-07-12T08:30:06;27.20;99.90
39345;DHT22;25061;51.954;6.996;2022-07-12T08:32:31;27.70;99.90
39345;DHT22;25061;51.954;6.996;2022-07-12T08:34:57;28.00;99.90
39345;DHT22;25061;51.954;6.996;2022-07-12T08:37:23;27.90;99.90
39345;DHT22;25061;51.954;6.996;2022-07-12T08:39:49;27.70;99.90
39345;DHT22;25061;51.954;6.996;2022-07-12T08:42:15;27.20;99.90
39345;DHT22;25061;51.954;6.996;2022-07-12T08:44:42;27.20;99.90
39345;DHT22;25061;51.954;6.996;2022-07-12T08:47:08;27.90;99.90
39345;DHT22;25061;51.954;6.996;2022-07-12T08:49:37;27.70;99.90
39345;DHT22;25061;51.954;6.996;2022-07-12T08:52:27;27.10;99.90
39345;DHT22;25061;51.954;6.996;2022-07-12T08:54:53;28.30;99.90
39345;DHT22;25061;51.954;6.996;2022-07-12T08:57:28;28.20;99.90
39345;DHT22;25061;51.954;6.996;2022-07-12T08:59:59;27.90;99.90
39345;DHT22;25061;51.954;6.996;2022-07-12T09:02:25;28.10;99.90
39345;DHT22;25061;51.954;6.996;2022-07-12T09:05:08;28.20;99.90
39345;DHT22;25061;51.954;6.996;2022-07-12T09:07:34;28.60;99.90
39345;DHT22;25061;51.954;6.996;2022-07-12T09:10:06;28.50;99.90
39345;DHT22;25061;51.954;6.996;2022-07-12T09:12:36;28.80;99.90
39345;DHT22;25061;51.954;6.996;2022-07-12T09:20:23;27.60;99.90
39345;DHT22;25061;51.954;6.996;2022-07-12T09:23:01;26.60;99.90
39345;DHT22;25061;51.954;6.996;2022-07-12T09:25:28;26.10;99.90
39345;DHT22;25061;51.954;6.996;2022-07-12T09:27:59;26.70;99.90
39345;DHT22;25061;51.954;6.996;2022-07-12T09:30:29;26.80;99.90
39345;DHT22;25061;51.954;6.996;2022-07-12T09:32:58;27.50;99.90
39345;DHT22;25061;51.954;6.996;2022-07-12T09:36:05;27.50;99.90
39345;DHT22;25061;51.954;6.996;2022-07-12T09:38:58;26.60;99.90
39345;DHT22;25061;51.954;6.996;2022-07-12T09:41:27;26.90;99.90
39345;DHT22;25061;51.954;6.996;2022-07-12T09:43:53;27.20;99.90
39345;DHT22;25061;51.954;6.996;2022-07-12T09:46:19;27.80;99.90
39345;DHT22;25061;51.954;6.996;2022-07-12T09:48:46;27.60;99.90
39345;DHT22;25061;51.954;6.996;2022-07-12T09:51:16;27.20;99.90
39345;DHT22;25061;51.954;6.996;2022-07-12T09:53:44;26.80;99.90
39345;DHT22;25061;51.954;6.996;2022-07-12T09:56:12;26.90;99.90
39345;DHT22;25061;51.954;6.996;2022-07-12T09:58:57;26.60;99.90
39345;DHT22;25061;51.954;6.996;2022-07-12T10:01:23;26.50;99.90
39345;DHT22;25061;51.954;6.996;2022-07-12T10:03:51;26.60;99.90
39345;DHT22;25061;51.954;6.996;2022-07-12T10:06:25;26.90;99.90
39345;DHT22;25061;51.954;6.996;2022-07-12T10:08:51;27.00;99.90
39345;DHT22;25061;51.954;6.996;2022-07-12T10:11:17;27.40;99.90
39345;DHT22;25061;51.954;6.996;2022-07-12T10:13:45;27.50;99.90
39345;DHT22;25061;51.954;6.996;2022-07-12T10:16:13;27.40;99.90
39345;DHT22;25061;51.954;6.996;2022-07-12T10:18:39;27.50;99.90
39345;DHT22;25061;51.954;6.996;2022-07-12T10:21:21;28.00;99.90
39345;DHT22;25061;51.954;6.996;2022-07-12T10:23:49;28.10;99.90
39345;DHT22;25061;51.954;6.996;2022-07-12T10:29:18;27.60;99.90
39345;DHT22;25061;51.954;6.996;2022-07-12T10:31:44;28.10;99.90
39345;DHT22;25061;51.954;6.996;2022-07-12T10:34:23;27.70;99.90
39345;DHT22;25061;51.954;6.996;2022-07-12T10:39:21;28.20;99.90
39345;DHT22;25061;51.954;6.996;2022-07-12T10:42:20;28.50;99.90
39345;DHT22;25061;51.954;6.996;2022-07-12T10:44:47;27.90;99.90
39345;DHT22;25061;51.954;6.996;2022-07-12T10:47:13;27.40;99.90
39345;DHT22;25061;51.954;6.996;2022-07-12T10:49:51;27.20;99.90
39345;DHT22;25061;51.954;6.996;2022-07-12T10:52:23;27.50;99.90
39345;DHT22;25061;51.954;6.996;2022-07-12T10:57:41;27.20;99.90
39345;DHT22;25061;51.954;6.996;2022-07-12T11:00:09;27.30;99.90
39345;DHT22;25061;51.954;6.996;2022-07-12T11:02:36;27.10;99.90
39345;DHT22;25061;51.954;6.996;2022-07-12T11:05:01;27.30;99.90
39345;DHT22;25061;51.954;6.996;2022-07-12T11:07:27;27.80;99.90
39345;DHT22;25061;51.954;6.996;2022-07-12T11:09:55;27.70;99.90
39345;DHT22;25061;51.954;6.996;2022-07-12T11:12:26;27.80;99.90
39345;DHT22;25061;51.954;6.996;2022-07-12T11:14:52;27.40;99.90
39345;DHT22;25061;51.954;6.996;2022-07-12T11:17:24;27.30;99.90
39345;DHT22;25061;51.954;6.996;2022-07-12T11:19:50;27.30;99.90
39345;DHT22;25061;51.954;6.996;2022-07-12T11:22:27;27.30;99.90
39345;DHT22;25061;51.954;6.996;2022-07-12T11:24:54;27.20;99.90
39345;DHT22;25061;51.954;6.996;2022-07-12T11:27:20;27.00;99.90
39345;DHT22;25061;51.954;6.996;2022-07-12T11:29:59;27.30;99.90
39345;DHT22;25061;51.954;6.996;2022-07-12T11:32:35;26.80;99.90
39345;DHT22;25061;51.954;6.996;2022-07-12T11:35:02;27.10;99.90
39345;DHT22;25061;51.954;6.996;2022-07-12T11:37:28;27.30;99.90
39345;DHT22;25061;51.954;6.996;2022-07-12T11:39:53;27.10;99.90
39345;DHT22;25061;51.954;6.996;2022-07-12T11:42:19;26.80;99.90
39345;DHT22;25061;51.954;6.996;2022-07-12T11:44:45;26.90;99.90
39345;DHT22;25061;51.954;6.996;2022-07-12T11:47:12;27.00;99.90
39345;DHT22;25061;51.954;6.996;2022-07-12T11:49:43;27.10;99.90
39345;DHT22;25061;51.954;6.996;2022-07-12T11:52:12;27.50;99.90
39345;DHT22;25061;51.954;6.996;2022-07-12T11:54:38;27.30;99.90
39345;DHT22;25061;51.954;6.996;2022-07-12T11:57:11;27.20;99.90
39345;DHT22;25061;51.954;6.996;2022-07-12T11:59:37;27.60;99.90
39345;DHT22;25061;51.954;6.996;2022-07-12T12:02:06;27.30;99.90
39345;DHT22;25061;51.954;6.996;2022-07-12T12:07:18;26.90;99.60
39345;DHT22;25061;51.954;6.996;2022-07-12T12:10:13;27.10;99.40
39345;DHT22;25061;51.954;6.996;2022-07-12T12:13:12;26.70;99.90
39345;DHT22;25061;51.954;6.996;2022-07-12T12:15:37;27.10;99.50
39345;DHT22;25061;51.954;6.996;2022-07-12T12:18:07;27.20;99.80
39345;DHT22;25061;51.954;6.996;2022-07-12T12:20:38;26.90;99.90
39345;DHT22;25061;51.954;6.996;2022-07-12T12:23:18;27.10;99.90
39345;DHT22;25061;51.954;6.996;2022-07-12T12:25:44;27.00;99.90
39345;DHT22;25061;51.954;6.996;2022-07-12T12:28:11;27.00;99.90
39345;DHT22;25061;51.954;6.996;2022-07-12T12:33:33;26.60;99.90
39345;DHT22;25061;51.954;6.996;2022-07-12T12:36:11;26.40;99.90
39345;DHT22;25061;51.954;6.996;2022-07-12T12:38:37;26.50;99.90
39345;DHT22;25061;51.954;6.996;2022-07-12T12:41:03;26.50;99.90
39345;DHT22;25061;51.954;6.996;2022-07-12T12:43:30;26.60;99.90
39345;DHT22;25061;51.954;6.996;2022-07-12T12:45:57;26.40;99.90
39345;DHT22;25061;51.954;6.996;2022-07-12T12:48:24;26.70;99.90
39345;DHT22;25061;51.954;6.996;2022-07-12T12:50:53;26.90;99.90
39345;DHT22;25061;51.954;6.996;2022-07-12T12:53:23;26.70;99.90
39345;DHT22;25061;51.954;6.996;2022-07-12T12:55:51;26.30;99.90
39345;DHT22;25061;51.954;6.996;2022-07-12T12:58:18;26.20;99.90
39345;DHT22;25061;51.954;6.996;2022-07-12T13:00:45;26.20;99.90
39345;DHT22;25061;51.954;6.996;2022-07-12T13:03:13;26.50;99.40
39345;DHT22;25061;51.954;6.996;2022-07-12T13:05:40;26.60;99.30
39345;DHT22;25061;51.954;6.996;2022-07-12T13:08:08;26.60;99.40
39345;DHT22;25061;51.954;6.996;2022-07-12T13:10:33;26.50;97.40
39345;DHT22;25061;51.954;6.996;2022-07-12T13:12:59;26.40;99.90
39345;DHT22;25061;51.954;6.996;2022-07-12T13:15:26;26.50;99.60
39345;DHT22;25061;51.954;6.996;2022-07-12T13:17:52;26.60;97.60
39345;DHT22;25061;51.954;6.996;2022-07-12T13:20:18;26.70;97.00
39345;DHT22;25061;51.954;6.996;2022-07-12T13:22:44;26.70;96.50
39345;DHT22;25061;51.954;6.996;2022-07-12T13:25:11;26.50;97.40
39345;DHT22;25061;51.954;6.996;2022-07-12T13:27:38;26.50;97.90
39345;DHT22;25061;51.954;6.996;2022-07-12T13:30:05;26.60;98.50
39345;DHT22;25061;51.954;6.996;2022-07-12T13:32:33;26.90;97.90
39345;DHT22;25061;51.954;6.996;2022-07-12T13:34:59;27.20;99.20
39345;DHT22;25061;51.954;6.996;2022-07-12T13:37:25;27.30;99.20
39345;DHT22;25061;51.954;6.996;2022-07-12T13:39:51;27.10;99.30
39345;DHT22;25061;51.954;6.996;2022-07-12T13:42:35;27.10;99.50
39345;DHT22;25061;51.954;6.996;2022-07-12T13:45:00;27.00;98.90
39345;DHT22;25061;51.954;6.996;2022-07-12T13:47:26;26.70;99.80
39345;DHT22;25061;51.954;6.996;2022-07-12T13:49:52;26.50;99.40
39345;DHT22;25061;51.954;6.996;2022-07-12T13:52:17;26.70;99.50
39345;DHT22;25061;51.954;6.996;2022-07-12T13:54:44;27.00;99.10
39345;DHT22;25061;51.954;6.996;2022-07-12T13:57:10;27.00;99.40
39345;DHT22;25061;51.954;6.996;2022-07-12T13:59:38;27.00;98.40
39345;DHT22;25061;51.954;6.996;2022-07-12T14:02:05;27.10;99.20
39345;DHT22;25061;51.954;6.996;2022-07-12T14:04:31;27.20;98.70
39345;DHT22;25061;51.954;6.996;2022-07-12T14:06:57;27.00;99.10
39345;DHT22;25061;51.954;6.996;2022-07-12T14:09:23;26.90;99.50
39345;DHT22;25061;51.954;6.996;2022-07-12T14:11:48;27.00;98.40
39345;DHT22;25061;51.954;6.996;2022-07-12T14:14:14;26.90;97.50
39345;DHT22;25061;51.954;6.996;2022-07-12T14:16:39;27.20;99.30
39345;DHT22;25061;51.954;6.996;2022-07-12T14:19:05;27.00;98.40
39345;DHT22;25061;51.954;6.996;2022-07-12T14:21:31;27.10;99.70
39345;DHT22;25061;51.954;6.996;2022-07-12T14:23:56;27.20;98.80
39345;DHT22;25061;51.954;6.996;2022-07-12T14:26:26;27.20;99.80
39345;DHT22;25061;51.954;6.996;2022-07-12T14:28:52;27.10;99.40
39345;DHT22;25061;51.954;6.996;2022-07-12T14:31:18;27.00;99.50
39345;DHT22;25061;51.954;6.996;2022-07-12T14:33:43;27.10;99.90
39345;DHT22;25061;51.954;6.996;2022-07-12T14:36:09;27.10;99.90
39345;DHT22;25061;51.954;6.996;2022-07-12T14:38:34;27.00;99.90
39345;DHT22;25061;51.954;6.996;2022-07-12T14:41:00;26.90;99.90
39345;DHT22;25061;51.954;6.996;2022-07-12T14:43:25;27.00;99.90
39345;DHT22;25061;51.954;6.996;2022-07-12T14:45:51;26.90;98.90
39345;DHT22;25061;51.954;6.996;2022-07-12T14:48:17;26.90;99.50
39345;DHT22;25061;51.954;6.996;2022-07-12T14:50:42;26.80;98.80
39345;DHT22;25061;51.954;6.996;2022-07-12T14:53:08;26.80;99.90
39345;DHT22;25061;51.954;6.996;2022-07-12T14:55:33;26.90;98.30
39345;DHT22;25061;51.954;6.996;2022-07-12T14:57:59;27.00;99.20
39345;DHT22;25061;51.954;6.996;2022-07-12T15:00:26;26.80;97.70
39345;DHT22;25061;51.954;6.996;2022-07-12T15:02:51;26.80;98.50
39345;DHT22;25061;51.954;6.996;2022-07-12T15:05:17;26.70;99.50
39345;DHT22;25061;51.954;6.996;2022-07-12T15:07:43;26.60;98.10
39345;DHT22;25061;51.954;6.996;2022-07-12T15:10:09;26.60;97.90
39345;DHT22;25061;51.954;6.996;2022-07-12T15:12:35;26.70;97.60
39345;DHT22;25061;51.954;6.996;2022-07-12T15:15:00;26.80;98.00
39345;DHT22;25061;51.954;6.996;2022-07-12T15:17:27;26.80;98.60
39345;DHT22;25061;51.954;6.996;2022-07-12T15:19:53;26.90;98.80
39345;DHT22;25061;51.954;6.996;2022-07-12T15:22:18;26.90;98.30
39345;DHT22;25061;51.954;6.996;2022-07-12T15:24:44;26.90;98.60
39345;DHT22;25061;51.954;6.996;2022-07-12T15:27:10;26.90;97.50
39345;DHT22;25061;51.954;6.996;2022-07-12T15:29:39;26.80;98.10
39345;DHT22;25061;51.954;6.996;2022-07-12T15:32:06;26.80;98.40
39345;DHT22;25061;51.954;6.996;2022-07-12T15:34:32;27.00;98.30
39345;DHT22;25061;51.954;6.996;2022-07-12T15:36:57;26.90;98.30
39345;DHT22;25061;51.954;6.996;2022-07-12T15:39:23;26.80;98.00
39345;DHT22;25061;51.954;6.996;2022-07-12T15:41:49;26.90;97.80
39345;DHT22;25061;51.954;6.996;2022-07-12T15:44:17;26.80;97.50
39345;DHT22;25061;51.954;6.996;2022-07-12T15:46:44;26.80;97.70
39345;DHT22;25061;51.954;6.996;2022-07-12T15:49:10;26.70;97.20
39345;DHT22;25061;51.954;6.996;2022-07-12T15:51:37;26.90;98.20